Greeley West High School, Colorado
Current Conditions -  °F | °C
As of 6:15 PM on Tuesday 27 Jan 2015 (Local Time) from KGXY Reporting Station
Clear Clear  
Wind Chill: 40°   Ceiling: Unl
Heat Index: 43°   Visibility: 9mi
Dew Point: 30°   Wind: 5mph
Humidity: 61%   Direction: 20°NNE
Pressure: 29.98"   Gusts: NA
Location:  40.41412°N, 104.7064°W
Report Text: KGXY 280115Z AUTO 02004KT 9SM CLR 06/M01 A2998 RMK AO1
Loading
Personal Weather Stations






























Interactive Weather Map New forecast layout! Learn more

10-Day Weather Forecast

Advertisements
Track Severe Weather on mobile